Time;durP1;ratioP1;P1;durP2;ratioP2;P2;SDS_P1;SDS_P2;PMS_P1;PMS_P2;Temp;Humidity;BMP_temperature;BMP_pressure;BME280_temperature;BME280_humidity;BME280_pressure;Samples;Min_cycle;Max_cycle;Signal;HPM_P1;HPM_P2
2021/01/13 04:23:14;;;;;;;12.75;2.75;;;2.40;99.90;;;;;;6304892;22;20049;-91
2021/01/13 04:25:50;;;;;;;8.10;2.60;;;2.30;99.90;;;;;;6283888;22;20007;-92
2021/01/13 04:28:28;;;;;;;12.38;3.20;;;2.30;99.90;;;;;;6310852;22;20007;-91
2021/01/13 04:34:20;;;;;;;;;;;;;;;;;;;;;
2021/01/13 04:36:51;;;;;;;7.65;2.50;;;2.30;99.90;;;;;;6264017;22;20074;-93
2021/01/13 04:39:28;;;;;;;12.15;2.50;;;2.30;99.90;;;;;;6310505;22;19995;-92
2021/01/13 04:42:02;;;;;;;7.35;1.58;;;2.30;99.90;;;;;;6282940;22;20000;-91
2021/01/13 04:44:44;;;;;;;4.97;1.70;;;2.30;99.90;;;;;;6283104;22;20007;-92
2021/01/13 04:47:12;;;;;;;8.45;1.83;;;2.30;99.90;;;;;;6283463;22;20087;-92
2021/01/13 04:49:41;;;;;;;5.70;1.50;;;2.30;99.90;;;;;;6282820;22;20424;-92
2021/01/13 04:52:21;;;;;;;4.95;1.50;;;2.40;99.90;;;;;;6283012;22;20003;-92
2021/01/13 04:54:56;;;;;;;5.90;1.27;;;2.30;99.90;;;;;;6258584;22;20004;-93
2021/01/13 04:57:50;;;;;;;5.63;1.40;;;2.40;99.90;;;;;;6259304;22;20007;-92
2021/01/13 05:00:43;;;;;;;3.88;0.85;;;2.40;99.90;;;;;;6310038;22;19999;-92
2021/01/13 05:03:34;;;;;;;3.42;1.00;;;2.40;99.90;;;;;;6309116;22;20013;-92
2021/01/13 05:06:30;;;;;;;4.35;1.58;;;2.40;99.90;;;;;;6283384;22;20005;-92
2021/01/13 05:09:09;;;;;;;8.65;1.50;;;2.40;99.90;;;;;;6287344;22;20022;-93
2021/01/13 05:11:44;;;;;;;7.60;1.27;;;2.40;99.90;;;;;;6310437;22;20009;-93
2021/01/13 05:14:23;;;;;;;9.05;1.25;;;2.40;99.90;;;;;;6310137;22;20426;-93
2021/01/13 05:17:03;;;;;;;8.60;1.35;;;2.40;99.90;;;;;;6283059;22;20048;-93
2021/01/13 05:20:00;;;;;;;7.55;1.30;;;2.30;99.90;;;;;;6309690;22;20446;-92
2021/01/13 05:22:35;;;;;;;5.40;1.25;;;2.30;99.90;;;;;;6309180;22;20431;-92
2021/01/13 05:25:53;;;;;;;8.07;2.53;;;2.20;99.90;;;;;;6280591;22;20007;-93
2021/01/13 05:28:26;;;;;;;7.32;2.08;;;2.20;99.90;;;;;;6310476;22;20022;-94
2021/01/13 05:31:12;;;;;;;5.57;2.33;;;2.10;99.90;;;;;;6282566;22;19995;-93
2021/01/13 05:33:43;;;;;;;9.60;2.15;;;2.10;99.90;;;;;;6283447;22;19999;-95
2021/01/13 05:36:17;;;;;;;8.95;2.78;;;2.10;99.90;;;;;;6251864;22;20059;-93
2021/01/13 05:39:10;;;;;;;10.07;1.70;;;2.10;99.90;;;;;;6250875;22;20003;-94
2021/01/13 05:41:40;;;;;;;8.18;1.67;;;2.10;99.90;;;;;;6283299;22;19991;-94
2021/01/13 05:44:11;;;;;;;9.15;1.58;;;2.10;99.90;;;;;;6282264;22;20320;-94
2021/01/13 05:47:00;;;;;;;;;;;;;;;;;;;;;
2021/01/13 05:49:36;;;;;;;5.78;1.25;;;2.00;99.90;;;;;;6309639;22;20081;-93
2021/01/13 05:52:11;;;;;;;9.27;1.38;;;1.90;99.90;;;;;;6257363;22;20049;-93
2021/01/13 05:54:53;;;;;;;12.63;2.03;;;1.90;99.90;;;;;;6282869;22;20078;-93
2021/01/13 05:57:34;;;;;;;;;;;;;;;;;;;;;
2021/01/13 06:00:22;;;;;;;11.30;2.25;;;1.90;99.90;;;;;;6310103;22;20069;-94
2021/01/13 06:03:32;;;;;;;13.98;2.65;;;1.90;99.90;;;;;;6286537;22;19999;-93
2021/01/13 06:06:20;;;;;;;11.23;2.92;;;1.90;99.90;;;;;;6310641;22;20407;-93
2021/01/13 06:08:58;;;;;;;16.08;4.13;;;1.80;99.90;;;;;;6261202;22;20316;-92
2021/01/13 06:12:01;;;;;;;;;;;;;;;;;;;;;
2021/01/13 06:14:41;;;;;;;;;;;;;;;;;;;;;
2021/01/13 06:17:40;;;;;;;;;;;;;;;;;;;;;
2021/01/13 06:24:38;;;;;;;13.60;3.10;;;1.80;99.90;;;;;;6262069;22;20315;-93
2021/01/13 06:27:54;;;;;;;11.00;2.88;;;1.80;99.90;;;;;;6281453;22;20007;-95
2021/01/13 06:31:17;;;;;;;;;;;;;;;;;;;;;
2021/01/13 06:34:30;;;;;;;11.88;3.33;;;1.80;99.90;;;;;;6039964;23;20098;-94
2021/01/13 06:38:16;;;;;;;;;;;;;;;;;;;;;
2021/01/13 06:41:43;;;;;;;;;;;;;;;;;;;;;
2021/01/13 06:45:08;;;;;;;;;;;;;;;;;;;;;
2021/01/13 06:48:09;;;;;;;13.07;3.40;;;1.80;99.90;;;;;;5899121;24;20488;-94
2021/01/13 08:17:46;;;;;;;11.10;2.90;;;1.60;99.90;;;;;;6190981;23;20079;-86
2021/01/13 08:21:08;;;;;;;12.43;3.58;;;1.60;99.90;;;;;;6189240;23;20021;-87
2021/01/13 08:23:40;;;;;;;12.95;2.70;;;1.60;99.90;;;;;;6144703;23;20005;-86
2021/01/13 08:26:07;;;;;;;13.50;3.30;;;1.70;99.90;;;;;;6165196;23;20013;-85
2021/01/13 08:28:41;;;;;;;12.18;3.05;;;1.70;99.90;;;;;;6188749;23;20013;-86
2021/01/13 08:31:09;;;;;;;16.70;2.78;;;1.70;99.90;;;;;;6221850;22;20016;-86
2021/01/13 08:33:37;;;;;;;13.73;3.45;;;1.80;99.90;;;;;;6248464;23;20054;-87
2021/01/13 08:36:13;;;;;;;15.50;2.53;;;1.80;99.90;;;;;;6245847;23;20007;-86
2021/01/13 08:39:15;;;;;;;11.05;2.50;;;1.80;99.90;;;;;;6247113;23;20038;-85
2021/01/13 08:41:42;;;;;;;13.57;2.95;;;1.90;99.90;;;;;;6209805;23;20012;-85
2021/01/13 08:44:16;;;;;;;13.38;2.60;;;1.90;99.90;;;;;;6245296;23;20086;-85
2021/01/13 08:46:44;;;;;;;12.23;2.78;;;2.00;99.90;;;;;;6244416;23;20057;-86
2021/01/13 08:49:19;;;;;;;10.02;2.35;;;2.00;99.90;;;;;;6245489;23;20435;-85
2021/01/13 08:52:15;;;;;;;12.32;2.70;;;2.10;99.90;;;;;;6219829;23;20004;-86
2021/01/13 08:54:47;;;;;;;7.47;2.20;;;2.20;99.90;;;;;;6219921;23;20019;-87
2021/01/13 08:57:14;;;;;;;9.63;2.42;;;2.20;99.90;;;;;;6246665;23;20008;-86
2021/01/13 08:59:40;;;;;;;12.30;3.25;;;2.20;99.90;;;;;;6244306;23;21052;-86
2021/01/13 09:02:11;;;;;;;10.57;2.63;;;2.30;99.90;;;;;;6246519;23;20007;-86
2021/01/13 09:04:57;;;;;;;11.80;2.72;;;2.30;99.90;;;;;;6219828;23;20004;-84
2021/01/13 09:07:28;;;;;;;9.65;2.80;;;2.40;99.90;;;;;;6220783;23;20019;-85
2021/01/13 09:09:56;;;;;;;10.65;2.55;;;2.50;99.90;;;;;;6250912;23;20000;-84
2021/01/13 09:12:57;;;;;;;16.13;3.30;;;2.90;99.90;;;;;;6250866;23;20411;-88
2021/01/13 09:15:27;;;;;;;9.75;3.00;;;4.10;99.90;;;;;;6157646;23;20100;-85
2021/01/13 09:17:58;;;;;;;15.75;2.83;;;5.10;99.90;;;;;;6233182;23;20441;-86
2021/01/13 09:20:30;;;;;;;9.15;2.53;;;5.90;99.90;;;;;;6248541;23;20107;-86
2021/01/13 09:23:04;;;;;;;8.77;2.78;;;6.50;99.90;;;;;;6248934;23;20008;-89
2021/01/13 09:25:43;;;;;;;7.55;1.98;;;7.10;99.90;;;;;;6225388;23;20431;-88
2021/01/13 09:28:15;;;;;;;7.97;2.28;;;7.60;99.90;;;;;;6221186;23;20043;-85
2021/01/13 09:30:42;;;;;;;9.68;1.67;;;8.10;99.90;;;;;;6248602;22;20031;-86
2021/01/13 09:33:13;;;;;;;7.20;2.03;;;8.50;99.90;;;;;;6223101;23;20019;-86
2021/01/13 09:35:43;;;;;;;7.65;1.70;;;8.90;99.90;;;;;;6222551;23;20004;-87
2021/01/13 09:38:10;;;;;;;8.70;2.13;;;9.20;99.90;;;;;;6221701;23;20039;-86
2021/01/13 09:40:50;;;;;;;11.25;2.97;;;9.40;99.90;;;;;;6244713;23;19996;-88
2021/01/13 09:43:40;;;;;;;9.60;1.67;;;9.50;99.90;;;;;;6244887;23;20001;-86
2021/01/13 09:46:25;;;;;;;11.25;2.38;;;9.60;99.90;;;;;;6218308;23;20301;-88
2021/01/13 09:48:59;;;;;;;10.68;2.55;;;9.50;99.80;;;;;;6217841;23;20012;-88
2021/01/13 09:51:26;;;;;;;10.68;2.05;;;9.50;99.70;;;;;;6215703;23;20422;-87
2021/01/13 09:53:54;;;;;;;7.00;2.22;;;9.60;98.40;;;;;;6215983;23;20155;-85
2021/01/13 09:56:21;;;;;;;14.15;2.78;;;9.80;98.60;;;;;;6216674;23;20034;-84
2021/01/13 09:58:48;;;;;;;7.80;2.50;;;9.90;98.10;;;;;;6216590;23;20000;-85
2021/01/13 10:01:22;;;;;;;6.80;2.17;;;10.10;96.50;;;;;;6242696;23;20087;-86
2021/01/13 10:03:50;;;;;;;10.05;1.98;;;10.10;96.90;;;;;;6216338;23;20004;-85
2021/01/13 10:06:20;;;;;;;9.85;2.22;;;10.20;95.80;;;;;;6216973;23;20007;-85
2021/01/13 10:08:50;;;;;;;8.23;2.42;;;10.40;96.20;;;;;;6217746;23;20090;-86
2021/01/13 10:11:18;;;;;;;11.20;1.85;;;10.10;94.50;;;;;;6237501;23;20092;-86
2021/01/13 10:13:45;;;;;;;6.88;1.80;;;9.30;95.10;;;;;;6189159;23;20441;-89
2021/01/13 10:16:12;;;;;;;8.98;1.67;;;9.30;96.60;;;;;;6218377;23;20004;-86
2021/01/13 10:19:07;;;;;;;7.05;1.80;;;9.70;96.70;;;;;;6243515;23;20012;-85
2021/01/13 10:21:44;;;;;;;6.32;1.88;;;10.10;96.50;;;;;;6182743;23;20374;-85
2021/01/13 10:24:15;;;;;;;8.00;1.90;;;10.40;94.70;;;;;;6244020;23;20001;-87
2021/01/13 10:26:45;;;;;;;8.73;2.35;;;9.60;94.10;;;;;;6216608;23;20059;-86
2021/01/13 10:29:19;;;;;;;8.60;1.92;;;8.70;95.60;;;;;;6216867;23;20012;-86
2021/01/13 10:31:45;;;;;;;9.13;2.15;;;7.70;97.30;;;;;;6209558;23;20026;-85
2021/01/13 10:34:12;;;;;;;7.93;2.15;;;7.10;99.10;;;;;;6231501;23;20106;-81
2021/01/13 10:36:49;;;;;;;9.13;1.90;;;7.10;99.90;;;;;;6270815;22;19988;-83
2021/01/13 10:39:20;;;;;;;8.15;2.25;;;8.00;99.90;;;;;;6270665;22;19997;-85
2021/01/13 10:41:50;;;;;;;10.07;2.25;;;8.40;99.90;;;;;;6234803;23;20039;-84
2021/01/13 10:44:27;;;;;;;6.03;2.17;;;8.10;99.90;;;;;;6228288;23;20338;-85
2021/01/13 10:46:59;;;;;;;7.95;2.40;;;7.60;99.90;;;;;;6254084;23;20007;-84
2021/01/13 10:49:27;;;;;;;9.43;2.35;;;7.10;99.90;;;;;;6222853;23;20020;-83
2021/01/13 10:52:04;;;;;;;7.57;2.25;;;6.60;99.90;;;;;;6217812;23;20012;-87
2021/01/13 10:54:34;;;;;;;12.85;3.20;;;6.40;99.90;;;;;;6217174;23;20012;-84
2021/01/13 10:57:01;;;;;;;8.95;2.35;;;6.50;99.90;;;;;;6217371;23;20008;-84
2021/01/13 10:59:28;;;;;;;9.63;2.72;;;7.30;99.90;;;;;;6217671;23;20008;-86
2021/01/13 11:02:07;;;;;;;8.07;2.38;;;8.00;99.90;;;;;;6244681;23;20058;-85
2021/01/13 11:04:44;;;;;;;11.55;3.05;;;8.80;99.90;;;;;;6245500;23;20000;-85
2021/01/13 11:07:18;;;;;;;5.63;1.42;;;8.90;99.30;;;;;;6218113;23;20330;-84
2021/01/13 11:09:49;;;;;;;8.75;2.38;;;9.50;99.80;;;;;;6218482;23;20008;-85
2021/01/13 11:12:38;;;;;;;8.68;2.40;;;10.10;97.90;;;;;;6245642;23;20031;-85
2021/01/13 11:15:09;;;;;;;10.90;2.53;;;10.80;95.00;;;;;;6240417;23;20015;-84
2021/01/13 11:17:35;;;;;;;7.78;2.10;;;11.10;94.90;;;;;;6243691;23;20054;-87
2021/01/13 11:20:04;;;;;;;10.35;2.17;;;11.50;94.40;;;;;;6243440;23;20004;-85
2021/01/13 11:22:51;;;;;;;9.93;2.50;;;11.60;92.60;;;;;;6215123;23;20353;-85
2021/01/13 11:25:25;;;;;;;11.68;2.28;;;11.90;91.50;;;;;;6216923;23;20012;-85
2021/01/13 11:28:10;;;;;;;;;;;11.80;88.40;;;;;;6248027;23;20009;-88
2021/01/13 11:30:39;;;;;;;7.80;2.00;;;11.60;87.80;;;;;;6212042;23;19911;-87
2021/01/13 11:33:07;;;;;;;7.13;2.78;;;11.50;88.90;;;;;;6216507;23;20127;-88
2021/01/13 11:35:38;;;;;;;9.15;2.20;;;11.80;89.40;;;;;;6244736;23;20498;-88
2021/01/13 11:38:38;;;;;;;12.48;3.28;;;11.90;86.60;;;;;;6217397;23;20030;-86
2021/01/13 11:41:28;;;;;;;11.32;2.20;;;11.70;87.90;;;;;;6218588;23;20346;-87
2021/01/13 11:44:12;;;;;;;8.10;2.38;;;11.00;87.60;;;;;;6220544;23;20044;-87
2021/01/13 11:46:43;;;;;;;7.07;2.05;;;9.90;90.70;;;;;;6220211;23;20457;-84
2021/01/13 11:49:18;;;;;;;11.65;2.75;;;9.00;93.00;;;;;;6246871;23;20523;-87
2021/01/13 11:51:50;;;;;;;8.85;2.03;;;8.30;94.90;;;;;;6220224;23;20000;-85
2021/01/13 11:54:30;;;;;;;9.27;2.10;;;7.90;96.90;;;;;;6246598;23;20004;-88
2021/01/13 11:57:19;;;;;;;9.90;2.22;;;7.50;98.70;;;;;;6219856;23;20004;-88
2021/01/13 11:59:46;;;;;;;14.32;2.63;;;7.20;99.20;;;;;;6247559;23;20008;-87
2021/01/13 12:02:25;;;;;;;7.63;2.28;;;7.00;99.90;;;;;;6246282;23;20335;-89
2021/01/13 12:04:51;;;;;;;8.10;2.03;;;6.90;99.90;;;;;;6219102;23;20458;-89
2021/01/13 12:07:17;;;;;;;11.35;2.47;;;6.80;99.90;;;;;;6219405;23;19996;-86
2021/01/13 12:09:43;;;;;;;13.43;3.10;;;6.70;99.90;;;;;;6246942;23;20061;-86
2021/01/13 12:12:24;;;;;;;10.80;2.38;;;6.50;99.90;;;;;;6224781;23;20011;-84
2021/01/13 12:14:50;;;;;;;12.30;2.60;;;6.40;99.90;;;;;;6226556;23;20066;-86
2021/01/13 12:17:19;;;;;;;10.23;2.53;;;6.30;99.90;;;;;;6250287;23;20004;-83
2021/01/13 12:19:44;;;;;;;8.85;2.20;;;6.20;99.90;;;;;;6248243;23;20606;-83
2021/01/13 12:22:10;;;;;;;11.60;1.92;;;6.20;99.90;;;;;;6245071;23;20007;-86
2021/01/13 12:24:42;;;;;;;8.20;1.92;;;6.10;99.90;;;;;;6249058;23;20001;-86
2021/01/13 12:27:27;;;;;;;9.48;2.35;;;6.10;99.90;;;;;;6223754;23;20004;-88
2021/01/13 12:30:13;;;;;;;12.07;2.25;;;6.00;99.90;;;;;;6225578;23;20004;-85
2021/01/13 12:32:39;;;;;;;5.35;1.30;;;5.90;99.90;;;;;;6222209;23;20016;-86
2021/01/13 12:35:07;;;;;;;10.85;2.13;;;5.80;99.90;;;;;;6218363;23;20094;-85
2021/01/13 12:37:47;;;;;;;8.73;1.52;;;5.80;99.90;;;;;;6219530;23;20095;-85
2021/01/13 12:40:13;;;;;;;7.95;1.30;;;5.80;99.90;;;;;;6219172;23;20015;-87
2021/01/13 12:42:39;;;;;;;10.23;1.45;;;5.70;99.90;;;;;;6219834;23;20016;-86
2021/01/13 12:45:06;;;;;;;5.65;1.30;;;5.70;99.90;;;;;;6245724;23;20453;-86
2021/01/13 12:47:32;;;;;;;2.92;1.10;;;5.70;99.90;;;;;;6218065;23;20012;-87
2021/01/13 12:49:57;;;;;;;10.73;1.77;;;5.60;99.90;;;;;;6217597;23;20070;-85
2021/01/13 12:52:23;;;;;;;5.43;1.27;;;5.60;99.90;;;;;;6216512;23;20084;-85
2021/01/13 12:54:50;;;;;;;10.45;1.45;;;5.60;99.90;;;;;;6246021;23;20423;-86
2021/01/13 12:57:16;;;;;;;5.50;1.52;;;5.50;99.90;;;;;;6218838;23;20008;-87
2021/01/13 12:59:41;;;;;;;5.80;1.33;;;5.60;99.90;;;;;;6220269;23;20043;-87
2021/01/13 13:02:08;;;;;;;7.03;1.40;;;5.60;99.90;;;;;;6224027;23;20007;-86
2021/01/13 13:04:34;;;;;;;9.43;2.47;;;5.60;99.90;;;;;;6218650;23;20015;-85
2021/01/13 13:06:59;;;;;;;4.72;1.77;;;5.70;99.90;;;;;;6217594;23;19996;-86
2021/01/13 13:09:25;;;;;;;7.80;1.30;;;5.70;99.90;;;;;;6220840;23;20051;-85
2021/01/13 13:11:51;;;;;;;6.85;1.42;;;5.70;99.40;;;;;;6220774;23;20012;-87
2021/01/13 13:14:16;;;;;;;7.30;1.20;;;5.80;99.60;;;;;;6218090;23;20016;-87
2021/01/13 13:16:43;;;;;;;9.30;1.65;;;5.80;99.70;;;;;;6219594;23;20465;-86
2021/01/13 13:19:10;;;;;;;5.30;1.20;;;5.90;99.70;;;;;;6219996;23;20024;-88
2021/01/13 13:21:35;;;;;;;4.88;1.30;;;5.90;99.90;;;;;;6224771;23;20004;-88
2021/01/13 13:24:01;;;;;;;9.32;2.35;;;5.90;99.60;;;;;;6225566;23;20012;-87
2021/01/13 13:26:27;;;;;;;8.85;1.23;;;6.00;98.50;;;;;;6229237;23;20462;-87
2021/01/13 13:28:52;;;;;;;8.95;1.77;;;6.00;99.20;;;;;;6231734;23;20012;-87
2021/01/13 13:31:20;;;;;;;8.85;1.50;;;6.10;99.00;;;;;;6222670;23;20043;-86
2021/01/13 13:33:46;;;;;;;7.47;1.60;;;6.60;99.90;;;;;;6219831;23;20012;-85
2021/01/13 13:36:14;;;;;;;6.35;1.60;;;7.40;98.50;;;;;;6247340;23;19999;-88
2021/01/13 13:38:40;;;;;;;9.55;1.48;;;8.10;97.10;;;;;;6224426;23;20043;-86
2021/01/13 13:41:06;;;;;;;8.13;1.80;;;8.80;96.10;;;;;;6226029;23;20016;-88
2021/01/13 13:43:33;;;;;;;8.45;1.63;;;9.30;92.10;;;;;;6251694;23;20370;-88
2021/01/13 13:45:59;;;;;;;8.32;1.40;;;9.50;91.80;;;;;;6223276;23;20003;-87
2021/01/13 13:48:25;;;;;;;6.30;1.83;;;9.40;90.50;;;;;;6225338;23;20016;-89
2021/01/13 13:51:00;;;;;;;7.32;1.08;;;8.70;88.20;;;;;;6225807;23;20063;-88
2021/01/13 13:53:27;;;;;;;8.13;1.35;;;8.00;90.60;;;;;;6221262;23;20004;-89
2021/01/13 13:55:53;;;;;;;7.07;1.40;;;7.50;92.30;;;;;;6220698;23;20032;-86
2021/01/13 13:58:19;;;;;;;7.03;1.48;;;7.20;93.30;;;;;;6220084;23;20442;-88
2021/01/13 14:00:44;;;;;;;8.00;1.55;;;6.90;93.60;;;;;;6218595;23;20004;-86
2021/01/13 14:03:10;;;;;;;4.97;1.02;;;6.70;94.20;;;;;;6228675;23;20015;-88
2021/01/13 14:05:35;;;;;;;11.90;1.70;;;6.60;95.10;;;;;;6224817;23;20423;-90
2021/01/13 14:08:01;;;;;;;7.38;1.48;;;6.50;95.50;;;;;;6252451;23;20077;-84
2021/01/13 14:10:27;;;;;;;6.00;1.92;;;6.50;95.10;;;;;;6224822;23;20010;-84
2021/01/13 14:12:52;;;;;;;8.38;1.38;;;6.50;96.30;;;;;;6250844;23;20351;-84
2021/01/13 14:15:19;;;;;;;11.25;1.40;;;6.50;96.60;;;;;;6250633;23;20007;-86
2021/01/13 14:17:45;;;;;;;9.98;1.67;;;6.60;96.50;;;;;;6223166;23;20008;-87
2021/01/13 14:20:11;;;;;;;6.13;1.23;;;6.50;96.30;;;;;;6223533;23;20014;-87
2021/01/13 14:22:40;;;;;;;10.02;1.85;;;6.50;96.60;;;;;;6223931;23;20067;-88
2021/01/13 14:25:07;;;;;;;10.40;1.70;;;6.60;96.20;;;;;;6223597;23;20012;-84
2021/01/13 14:27:33;;;;;;;7.03;1.35;;;6.50;95.90;;;;;;6251412;23;20012;-84
2021/01/13 14:29:59;;;;;;;9.07;1.10;;;6.50;96.40;;;;;;6223419;23;20012;-89
2021/01/13 14:32:25;;;;;;;8.30;1.63;;;6.50;97.20;;;;;;6223796;23;20020;-84
2021/01/13 14:34:50;;;;;;;8.43;1.35;;;6.40;97.70;;;;;;6223316;23;20116;-85
2021/01/13 14:37:16;;;;;;;6.65;1.80;;;6.40;98.00;;;;;;6219463;23;20010;-87
2021/01/13 14:39:42;;;;;;;8.65;1.73;;;6.30;97.00;;;;;;6219152;23;20670;-87
2021/01/13 14:42:12;;;;;;;7.07;1.58;;;6.20;97.30;;;;;;6246475;23;20422;-85
2021/01/13 14:44:38;;;;;;;6.78;1.17;;;6.10;97.20;;;;;;6223080;23;20112;-88
2021/01/13 14:47:05;;;;;;;7.22;1.23;;;6.00;97.90;;;;;;6224572;23;20000;-85
2021/01/13 14:49:31;;;;;;;6.13;1.35;;;6.00;98.00;;;;;;6225469;23;20027;-88
2021/01/13 14:51:57;;;;;;;9.60;1.70;;;5.90;98.50;;;;;;6232670;23;20072;-87
2021/01/13 14:54:23;;;;;;;7.25;1.73;;;5.80;97.90;;;;;;6245871;22;20001;-85
2021/01/13 14:56:49;;;;;;;8.55;1.75;;;5.70;98.70;;;;;;6246134;23;19999;-85
2021/01/13 14:59:14;;;;;;;4.80;1.33;;;5.60;99.10;;;;;;6235323;23;20044;-84
2021/01/13 15:01:40;;;;;;;10.10;1.80;;;5.50;99.30;;;;;;6231467;23;20098;-85
2021/01/13 15:04:06;;;;;;;7.57;1.40;;;5.40;99.40;;;;;;6230464;23;20000;-86
2021/01/13 15:06:32;;;;;;;6.57;1.35;;;5.30;99.80;;;;;;6226335;23;20008;-86
2021/01/13 15:08:57;;;;;;;8.25;2.28;;;5.30;99.90;;;;;;6195644;23;20028;-84
2021/01/13 15:11:23;;;;;;;6.93;1.08;;;5.20;99.90;;;;;;6218189;23;20016;-84
2021/01/13 15:13:57;;;;;;;8.95;1.67;;;5.20;99.90;;;;;;6224602;23;20011;-89
2021/01/13 15:16:22;;;;;;;;;;;5.20;99.90;;;;;;6227022;23;20027;-88
2021/01/13 15:18:48;;;;;;;10.38;2.38;;;5.10;99.90;;;;;;6223340;23;19903;-85
2021/01/13 15:21:22;;;;;;;10.00;1.80;;;5.10;99.90;;;;;;6254386;23;20000;-86
2021/01/13 15:23:49;;;;;;;9.95;1.60;;;5.00;99.90;;;;;;6225309;23;20450;-84
2021/01/13 15:26:16;;;;;;;7.85;1.50;;;5.00;99.90;;;;;;6251964;23;20078;-86
2021/01/13 15:28:45;;;;;;;6.88;1.38;;;4.90;99.90;;;;;;6215827;23;20027;-84
2021/01/13 15:31:14;;;;;;;6.18;1.60;;;4.90;99.90;;;;;;6215961;23;20024;-84
2021/01/13 15:33:39;;;;;;;8.40;1.88;;;4.90;99.90;;;;;;6216426;23;20020;-85
2021/01/13 15:36:05;;;;;;;10.32;2.10;;;4.90;99.90;;;;;;6246526;23;20351;-85
2021/01/13 15:38:31;;;;;;;7.47;1.85;;;4.90;99.90;;;;;;6257899;23;20075;-86
2021/01/13 15:40:58;;;;;;;6.82;2.38;;;4.90;99.90;;;;;;6229274;23;20072;-84
2021/01/13 15:43:25;;;;;;;9.23;2.45;;;4.90;99.90;;;;;;6212021;23;20383;-86
2021/01/13 15:45:51;;;;;;;11.35;2.15;;;4.90;99.90;;;;;;6210980;23;20342;-86
2021/01/13 15:48:20;;;;;;;8.80;2.20;;;4.90;99.90;;;;;;6211599;23;20116;-83
2021/01/13 15:50:46;;;;;;;10.43;2.42;;;4.80;99.90;;;;;;6211571;23;20004;-85
2021/01/13 15:53:13;;;;;;;9.50;2.22;;;4.90;99.90;;;;;;6212930;23;20704;-85
2021/01/13 15:55:39;;;;;;;10.45;2.40;;;4.80;99.90;;;;;;6211025;23;20085;-85
2021/01/13 15:58:16;;;;;;;5.90;2.03;;;4.80;99.90;;;;;;6210775;23;20019;-84
2021/01/13 16:00:42;;;;;;;9.00;2.38;;;4.90;99.90;;;;;;6210629;23;20008;-83
2021/01/13 16:03:08;;;;;;;7.47;2.15;;;4.80;99.90;;;;;;6211579;23;20035;-86
2021/01/13 16:05:36;;;;;;;7.82;1.80;;;4.80;99.90;;;;;;6214470;23;20008;-86
2021/01/13 16:08:02;;;;;;;7.00;1.92;;;4.80;99.90;;;;;;6214635;23;20075;-87
2021/01/13 16:10:29;;;;;;;7.68;2.22;;;4.80;99.90;;;;;;6212920;23;20008;-87
2021/01/13 16:12:57;;;;;;;8.18;2.08;;;4.80;99.90;;;;;;6238263;23;20008;-86
2021/01/13 16:15:24;;;;;;;10.52;1.95;;;4.80;99.90;;;;;;6212942;23;20430;-85
2021/01/13 16:17:55;;;;;;;7.05;1.95;;;4.80;99.90;;;;;;6213948;23;20075;-88
2021/01/13 16:20:25;;;;;;;8.02;1.75;;;4.90;99.90;;;;;;6241068;23;20011;-86
2021/01/13 16:22:53;;;;;;;14.60;3.08;;;4.80;99.90;;;;;;6215097;23;20020;-86
2021/01/13 16:25:20;;;;;;;6.53;2.28;;;4.90;99.90;;;;;;6214195;23;20008;-87
2021/01/13 16:27:45;;;;;;;8.15;2.58;;;4.90;99.90;;;;;;6214283;23;20015;-88
2021/01/13 16:30:18;;;;;;;6.47;2.45;;;4.80;99.90;;;;;;6212429;23;20008;-87
2021/01/13 16:32:48;;;;;;;8.88;1.73;;;4.80;99.90;;;;;;6207977;23;20015;-86
2021/01/13 16:35:15;;;;;;;8.63;2.15;;;4.80;99.90;;;;;;6211304;23;20011;-86
2021/01/13 16:37:42;;;;;;;11.30;2.33;;;4.70;99.90;;;;;;6236847;23;20004;-86
2021/01/13 16:40:10;;;;;;;7.65;1.90;;;4.70;99.90;;;;;;6213811;23;20020;-88
2021/01/13 16:42:42;;;;;;;9.45;2.33;;;4.70;99.90;;;;;;6243402;23;20070;-89
2021/01/13 16:45:11;;;;;;;10.95;1.77;;;4.70;99.90;;;;;;6215967;23;20435;-88
2021/01/13 16:47:37;;;;;;;8.90;2.38;;;4.70;99.90;;;;;;6215265;23;20046;-89
2021/01/13 16:50:09;;;;;;;9.20;2.40;;;4.70;99.90;;;;;;6216101;23;20074;-87
2021/01/13 16:52:35;;;;;;;12.65;3.25;;;4.70;99.90;;;;;;6211323;23;20015;-84
2021/01/13 16:55:02;;;;;;;7.82;2.63;;;4.70;99.90;;;;;;6237790;23;20015;-84
2021/01/13 16:57:33;;;;;;;9.05;3.08;;;4.70;99.90;;;;;;6211710;23;20039;-87
2021/01/13 17:00:15;;;;;;;8.52;2.53;;;4.70;99.90;;;;;;6240067;23;20015;-87
2021/01/13 17:02:42;;;;;;;7.80;2.10;;;4.70;99.90;;;;;;6240023;23;20015;-87
2021/01/13 17:05:13;;;;;;;9.75;2.25;;;4.70;99.90;;;;;;6213224;23;20004;-84
2021/01/13 17:07:43;;;;;;;8.68;2.50;;;4.70;99.90;;;;;;6215532;23;20027;-90
2021/01/13 17:10:12;;;;;;;6.70;2.10;;;4.70;99.90;;;;;;6214883;23;20004;-89
2021/01/13 17:12:42;;;;;;;14.00;3.28;;;4.60;99.90;;;;;;6214563;23;20039;-87
2021/01/13 17:15:13;;;;;;;10.38;2.03;;;4.60;99.90;;;;;;6213703;23;20098;-83
2021/01/13 17:17:40;;;;;;;7.80;2.38;;;4.60;99.90;;;;;;6213711;23;20019;-84
2021/01/13 17:20:20;;;;;;;7.38;1.73;;;4.50;99.90;;;;;;6214785;23;20052;-88
2021/01/13 17:22:50;;;;;;;10.40;3.30;;;4.50;99.90;;;;;;6215900;23;20043;-92
2021/01/13 17:25:21;;;;;;;6.97;2.22;;;4.40;99.90;;;;;;6241750;23;20087;-88
2021/01/13 17:27:49;;;;;;;9.73;2.53;;;4.50;99.90;;;;;;6212660;23;20012;-83
2021/01/13 17:30:20;;;;;;;6.43;1.90;;;4.50;99.90;;;;;;6209465;23;20008;-83
2021/01/13 17:32:46;;;;;;;6.53;2.00;;;4.40;99.90;;;;;;6212513;23;20497;-87
2021/01/13 17:35:14;;;;;;;8.52;2.45;;;4.40;99.90;;;;;;6212355;23;20012;-89
2021/01/13 17:38:04;;;;;;;8.98;2.33;;;4.40;99.90;;;;;;6250781;23;20008;-92
2021/01/13 17:40:38;;;;;;;9.05;2.78;;;4.40;99.90;;;;;;6223209;22;20043;-91
2021/01/13 17:43:03;;;;;;;;;;;4.40;99.90;;;;;;6281090;22;20654;-88
2021/01/13 17:48:28;;;;;;;11.05;2.65;;;4.30;99.90;;;;;;6239997;23;20024;-93
2021/01/13 17:50:57;;;;;;;9.60;3.08;;;4.30;99.90;;;;;;6215891;23;20008;-94
2021/01/13 17:53:50;;;;;;;10.48;3.10;;;4.30;99.90;;;;;;6216538;23;20035;-91
2021/01/13 17:56:16;;;;;;;7.50;2.80;;;4.30;99.90;;;;;;6219475;23;20009;-96
2021/01/13 17:58:42;;;;;;;8.52;2.50;;;4.30;99.90;;;;;;6220576;23;20027;-94
2021/01/13 18:01:13;;;;;;;6.43;2.40;;;4.20;99.90;;;;;;6218981;23;20008;-92
2021/01/13 18:03:47;;;;;;;8.23;3.13;;;4.30;99.90;;;;;;6196571;23;20015;-95
2021/01/13 18:06:27;;;;;;;9.25;2.72;;;4.20;99.90;;;;;;6220663;23;20012;-93
2021/01/13 18:08:58;;;;;;;10.80;3.47;;;4.20;99.90;;;;;;6220661;23;20095;-94
2021/01/13 18:11:28;;;;;;;12.15;3.28;;;4.20;99.90;;;;;;6164959;23;20016;-93
2021/01/13 18:14:02;;;;;;;10.48;2.42;;;4.10;99.90;;;;;;6193259;23;20004;-94
2021/01/13 18:16:31;;;;;;;7.55;2.78;;;4.10;99.90;;;;;;6245032;23;20032;-93
2021/01/13 18:19:22;;;;;;;13.73;3.22;;;4.00;99.90;;;;;;6244444;23;20001;-94
2021/01/13 18:21:57;;;;;;;10.68;2.83;;;3.90;99.90;;;;;;6218582;23;20008;-93
2021/01/13 18:24:44;;;;;;;10.15;3.25;;;3.90;99.90;;;;;;6219038;23;20392;-94
2021/01/13 18:27:11;;;;;;;11.70;2.85;;;3.80;99.90;;;;;;6214779;23;20031;-94
2021/01/13 18:29:45;;;;;;;13.48;3.15;;;3.70;99.90;;;;;;6188709;23;20012;-93
2021/01/13 18:32:24;;;;;;;13.05;3.05;;;3.70;99.90;;;;;;6195995;23;20012;-94
2021/01/13 18:34:51;;;;;;;10.50;2.88;;;3.70;99.90;;;;;;6192573;23;20000;-92
2021/01/13 18:37:25;;;;;;;7.50;2.80;;;3.60;99.90;;;;;;6242839;23;20004;-92
2021/01/13 18:40:34;;;;;;;12.50;3.30;;;3.60;99.90;;;;;;6212802;23;20008;-92
2021/01/13 18:43:34;;;;;;;11.82;3.00;;;3.60;99.90;;;;;;6214023;23;20038;-92
2021/01/13 18:46:02;;;;;;;9.55;2.50;;;3.50;99.90;;;;;;6243153;23;20012;-93
2021/01/13 18:48:31;;;;;;;13.13;3.88;;;3.50;99.90;;;;;;6212145;23;20078;-93
2021/01/13 18:51:00;;;;;;;9.27;3.72;;;3.40;99.90;;;;;;6213568;23;20509;-94
2021/01/13 18:53:30;;;;;;;11.80;3.85;;;3.50;99.90;;;;;;6215084;23;20361;-93
2021/01/13 18:56:26;;;;;;;10.65;4.43;;;3.50;99.90;;;;;;6214504;23;20023;-93
2021/01/13 18:59:03;;;;;;;11.15;4.57;;;3.60;99.90;;;;;;6211037;23;20043;-94
2021/01/13 19:02:01;;;;;;;12.70;4.43;;;3.60;99.90;;;;;;6191745;23;20279;-95
2021/01/13 19:04:33;;;;;;;12.05;3.85;;;3.70;99.90;;;;;;6193124;23;20093;-94
2021/01/13 19:07:05;;;;;;;13.88;3.78;;;3.70;99.90;;;;;;6193017;23;20332;-95
2021/01/13 19:10:04;;;;;;;13.57;3.33;;;3.70;99.90;;;;;;6165948;23;20047;-95
2021/01/13 19:13:05;;;;;;;;;;;;;;;;;;;;;
2021/01/13 19:15:41;;;;;;;11.83;2.90;;;3.80;99.90;;;;;;6185186;23;20074;-95
2021/01/13 19:18:50;;;;;;;12.05;3.53;;;3.80;99.90;;;;;;6216307;23;20012;-94
2021/01/13 19:21:22;;;;;;;11.65;3.72;;;3.80;99.90;;;;;;6242116;23;20015;-93
2021/01/13 19:23:51;;;;;;;11.95;3.85;;;3.80;99.90;;;;;;6219562;23;20020;-96
2021/01/13 19:29:45;;;;;;;;;;;;;;;;;;;;;
2021/01/13 19:32:16;;;;;;;12.60;3.58;;;3.90;99.90;;;;;;6241452;23;20398;-95
2021/01/13 19:34:59;;;;;;;;;;;;;;;;;;;;;
2021/01/13 19:37:37;;;;;;;;;;;;;;;;;;;;;
2021/01/13 19:40:16;;;;;;;16.08;5.10;;;4.00;99.90;;;;;;6218737;23;20079;-96
2021/01/13 19:43:26;;;;;;;12.80;3.70;;;4.00;99.90;;;;;;6217866;23;20027;-94
2021/01/13 19:46:34;;;;;;;7.93;2.67;;;4.10;99.90;;;;;;6194401;23;20016;-95
2021/01/13 19:49:09;;;;;;;7.88;3.00;;;4.10;99.90;;;;;;6237316;23;20020;-95
2021/01/13 19:51:46;;;;;;;11.45;3.35;;;4.10;99.90;;;;;;6217373;23;20012;-96